sensor_id;sensor_type;location;lat;lon;timestamp;temperature;humidity
20158;DHT22;10239;56.820;24.416;2023-11-19T00:01:39;1.90;99.90
20158;DHT22;10239;56.820;24.416;2023-11-19T00:04:07;1.80;99.90
20158;DHT22;10239;56.820;24.416;2023-11-19T00:06:35;1.70;99.90
20158;DHT22;10239;56.820;24.416;2023-11-19T00:09:03;1.60;99.90
20158;DHT22;10239;56.820;24.416;2023-11-19T00:11:31;1.50;99.90
20158;DHT22;10239;56.820;24.416;2023-11-19T00:13:58;1.60;99.90
20158;DHT22;10239;56.820;24.416;2023-11-19T00:16:25;1.60;99.90
20158;DHT22;10239;56.820;24.416;2023-11-19T00:18:53;1.50;99.90
20158;DHT22;10239;56.820;24.416;2023-11-19T00:21:21;1.60;99.90
20158;DHT22;10239;56.820;24.416;2023-11-19T00:23:48;1.60;99.90
20158;DHT22;10239;56.820;24.416;2023-11-19T00:26:16;1.60;99.90
20158;DHT22;10239;56.820;24.416;2023-11-19T00:28:46;1.50;99.90
20158;DHT22;10239;56.820;24.416;2023-11-19T00:31:15;1.40;99.90
20158;DHT22;10239;56.820;24.416;2023-11-19T00:33:42;1.30;99.90
20158;DHT22;10239;56.820;24.416;2023-11-19T00:36:12;1.40;99.90
20158;DHT22;10239;56.820;24.416;2023-11-19T00:38:40;1.40;99.90
20158;DHT22;10239;56.820;24.416;2023-11-19T00:41:07;1.40;99.90
20158;DHT22;10239;56.820;24.416;2023-11-19T00:43:35;1.40;99.90
20158;DHT22;10239;56.820;24.416;2023-11-19T00:46:02;1.60;99.90
20158;DHT22;10239;56.820;24.416;2023-11-19T00:48:30;1.50;99.90
20158;DHT22;10239;56.820;24.416;2023-11-19T00:50:58;1.50;99.90
20158;DHT22;10239;56.820;24.416;2023-11-19T00:53:26;1.50;99.90
20158;DHT22;10239;56.820;24.416;2023-11-19T00:55:53;1.60;99.90
20158;DHT22;10239;56.820;24.416;2023-11-19T00:58:21;1.60;99.90
20158;DHT22;10239;56.820;24.416;2023-11-19T01:00:49;1.60;99.90
20158;DHT22;10239;56.820;24.416;2023-11-19T01:03:16;1.50;99.90
20158;DHT22;10239;56.820;24.416;2023-11-19T01:05:44;1.40;99.90
20158;DHT22;10239;56.820;24.416;2023-11-19T01:08:13;1.30;99.90
20158;DHT22;10239;56.820;24.416;2023-11-19T01:10:44;1.40;99.90
20158;DHT22;10239;56.820;24.416;2023-11-19T01:13:11;1.40;99.90
20158;DHT22;10239;56.820;24.416;2023-11-19T01:15:38;1.40;99.90
20158;DHT22;10239;56.820;24.416;2023-11-19T01:18:08;1.30;99.90
20158;DHT22;10239;56.820;24.416;2023-11-19T01:20:36;1.00;99.90
20158;DHT22;10239;56.820;24.416;2023-11-19T01:23:04;1.10;99.90
20158;DHT22;10239;56.820;24.416;2023-11-19T01:25:32;1.00;99.90
20158;DHT22;10239;56.820;24.416;2023-11-19T01:27:59;1.10;99.90
20158;DHT22;10239;56.820;24.416;2023-11-19T01:30:27;1.00;99.90
20158;DHT22;10239;56.820;24.416;2023-11-19T01:32:54;0.90;99.90
20158;DHT22;10239;56.820;24.416;2023-11-19T01:35:22;0.80;99.90
20158;DHT22;10239;56.820;24.416;2023-11-19T01:37:53;0.80;99.90
20158;DHT22;10239;56.820;24.416;2023-11-19T01:40:21;0.70;99.90
20158;DHT22;10239;56.820;24.416;2023-11-19T01:42:49;0.70;99.90
20158;DHT22;10239;56.820;24.416;2023-11-19T01:45:27;0.80;99.90
20158;DHT22;10239;56.820;24.416;2023-11-19T01:48:04;0.90;99.90
20158;DHT22;10239;56.820;24.416;2023-11-19T01:50:32;1.10;99.90
20158;DHT22;10239;56.820;24.416;2023-11-19T01:53:00;1.00;99.90
20158;DHT22;10239;56.820;24.416;2023-11-19T01:55:28;0.90;99.90
20158;DHT22;10239;56.820;24.416;2023-11-19T01:57:59;0.90;99.90
20158;DHT22;10239;56.820;24.416;2023-11-19T02:00:27;0.70;99.90
20158;DHT22;10239;56.820;24.416;2023-11-19T02:02:55;0.80;99.90
20158;DHT22;10239;56.820;24.416;2023-11-19T02:05:25;0.80;99.90
20158;DHT22;10239;56.820;24.416;2023-11-19T02:07:52;0.80;99.90
20158;DHT22;10239;56.820;24.416;2023-11-19T02:10:20;0.80;99.90
20158;DHT22;10239;56.820;24.416;2023-11-19T02:12:47;0.60;99.90
20158;DHT22;10239;56.820;24.416;2023-11-19T02:15:15;0.60;99.90
20158;DHT22;10239;56.820;24.416;2023-11-19T02:17:46;0.40;99.90
20158;DHT22;10239;56.820;24.416;2023-11-19T02:20:13;0.40;99.90
20158;DHT22;10239;56.820;24.416;2023-11-19T02:22:43;0.40;99.90
20158;DHT22;10239;56.820;24.416;2023-11-19T02:25:25;0.70;99.90
20158;DHT22;10239;56.820;24.416;2023-11-19T02:28:01;0.50;99.90
20158;DHT22;10239;56.820;24.416;2023-11-19T02:30:32;0.70;99.90
20158;DHT22;10239;56.820;24.416;2023-11-19T02:32:59;0.70;99.90
20158;DHT22;10239;56.820;24.416;2023-11-19T02:35:31;0.70;99.90
20158;DHT22;10239;56.820;24.416;2023-11-19T02:37:59;0.50;99.90
20158;DHT22;10239;56.820;24.416;2023-11-19T02:40:27;0.70;99.90
20158;DHT22;10239;56.820;24.416;2023-11-19T02:42:55;0.70;99.90
20158;DHT22;10239;56.820;24.416;2023-11-19T02:45:24;0.60;99.90
20158;DHT22;10239;56.820;24.416;2023-11-19T02:47:53;0.50;99.90
20158;DHT22;10239;56.820;24.416;2023-11-19T02:50:22;0.30;99.90
20158;DHT22;10239;56.820;24.416;2023-11-19T02:52:56;0.40;99.90
20158;DHT22;10239;56.820;24.416;2023-11-19T02:55:24;0.60;99.90
20158;DHT22;10239;56.820;24.416;2023-11-19T02:57:52;0.50;99.90
20158;DHT22;10239;56.820;24.416;2023-11-19T03:00:22;0.50;99.90
20158;DHT22;10239;56.820;24.416;2023-11-19T03:02:58;0.50;99.90
20158;DHT22;10239;56.820;24.416;2023-11-19T03:05:27;0.70;99.90
20158;DHT22;10239;56.820;24.416;2023-11-19T03:07:57;0.60;99.90
20158;DHT22;10239;56.820;24.416;2023-11-19T03:10:25;0.60;99.90
20158;DHT22;10239;56.820;24.416;2023-11-19T03:12:52;0.60;99.90
20158;DHT22;10239;56.820;24.416;2023-11-19T03:15:20;0.60;99.90
20158;DHT22;10239;56.820;24.416;2023-11-19T03:17:48;0.50;99.90
20158;DHT22;10239;56.820;24.416;2023-11-19T03:20:15;0.60;99.90
20158;DHT22;10239;56.820;24.416;2023-11-19T03:22:44;0.90;99.90
20158;DHT22;10239;56.820;24.416;2023-11-19T03:25:11;1.00;99.90
20158;DHT22;10239;56.820;24.416;2023-11-19T03:27:40;1.10;99.90
20158;DHT22;10239;56.820;24.416;2023-11-19T03:30:09;1.00;99.90
20158;DHT22;10239;56.820;24.416;2023-11-19T03:32:37;1.00;99.90
20158;DHT22;10239;56.820;24.416;2023-11-19T03:35:07;0.90;99.90
20158;DHT22;10239;56.820;24.416;2023-11-19T03:37:35;1.00;99.90
20158;DHT22;10239;56.820;24.416;2023-11-19T03:40:04;1.20;99.90
20158;DHT22;10239;56.820;24.416;2023-11-19T03:42:31;1.30;99.90
20158;DHT22;10239;56.820;24.416;2023-11-19T03:44:59;1.40;99.90
20158;DHT22;10239;56.820;24.416;2023-11-19T03:47:27;1.20;99.90
20158;DHT22;10239;56.820;24.416;2023-11-19T03:49:54;1.10;99.90
20158;DHT22;10239;56.820;24.416;2023-11-19T03:52:22;1.20;99.90
20158;DHT22;10239;56.820;24.416;2023-11-19T03:54:49;1.00;99.90
20158;DHT22;10239;56.820;24.416;2023-11-19T03:57:16;1.30;99.90
20158;DHT22;10239;56.820;24.416;2023-11-19T03:59:44;1.40;99.90
20158;DHT22;10239;56.820;24.416;2023-11-19T04:02:11;1.50;99.90
20158;DHT22;10239;56.820;24.416;2023-11-19T04:04:39;1.00;99.90
20158;DHT22;10239;56.820;24.416;2023-11-19T04:07:06;0.80;99.90
20158;DHT22;10239;56.820;24.416;2023-11-19T04:09:34;0.70;99.90
20158;DHT22;10239;56.820;24.416;2023-11-19T04:12:01;0.80;99.90
20158;DHT22;10239;56.820;24.416;2023-11-19T04:14:29;0.70;99.90
20158;DHT22;10239;56.820;24.416;2023-11-19T04:16:57;0.70;99.90
20158;DHT22;10239;56.820;24.416;2023-11-19T04:19:25;0.60;99.90
20158;DHT22;10239;56.820;24.416;2023-11-19T04:21:53;0.70;99.90
20158;DHT22;10239;56.820;24.416;2023-11-19T04:24:20;0.60;99.90
20158;DHT22;10239;56.820;24.416;2023-11-19T04:26:48;0.60;99.90
20158;DHT22;10239;56.820;24.416;2023-11-19T04:29:16;0.80;99.90
20158;DHT22;10239;56.820;24.416;2023-11-19T04:31:44;0.90;99.90
20158;DHT22;10239;56.820;24.416;2023-11-19T04:34:13;1.10;99.90
20158;DHT22;10239;56.820;24.416;2023-11-19T04:36:40;1.10;99.90
20158;DHT22;10239;56.820;24.416;2023-11-19T04:39:07;1.00;99.90
20158;DHT22;10239;56.820;24.416;2023-11-19T04:41:46;0.80;99.90
20158;DHT22;10239;56.820;24.416;2023-11-19T04:44:16;0.50;99.90
20158;DHT22;10239;56.820;24.416;2023-11-19T04:46:45;0.30;99.90
20158;DHT22;10239;56.820;24.416;2023-11-19T04:49:14;0.20;99.90
20158;DHT22;10239;56.820;24.416;2023-11-19T04:51:42;0.20;99.90
20158;DHT22;10239;56.820;24.416;2023-11-19T04:54:10;0.40;99.90
20158;DHT22;10239;56.820;24.416;2023-11-19T04:56:39;0.50;99.90
20158;DHT22;10239;56.820;24.416;2023-11-19T04:59:07;0.60;99.90
20158;DHT22;10239;56.820;24.416;2023-11-19T05:01:35;0.50;99.90
20158;DHT22;10239;56.820;24.416;2023-11-19T05:04:02;0.60;99.90
20158;DHT22;10239;56.820;24.416;2023-11-19T05:06:31;0.60;99.90
20158;DHT22;10239;56.820;24.416;2023-11-19T05:09:00;0.60;99.90
20158;DHT22;10239;56.820;24.416;2023-11-19T05:11:40;0.60;99.90
20158;DHT22;10239;56.820;24.416;2023-11-19T05:14:10;0.60;99.90
20158;DHT22;10239;56.820;24.416;2023-11-19T05:16:42;0.70;99.90
20158;DHT22;10239;56.820;24.416;2023-11-19T05:19:10;0.80;99.90
20158;DHT22;10239;56.820;24.416;2023-11-19T05:21:37;0.90;99.90
20158;DHT22;10239;56.820;24.416;2023-11-19T05:24:06;0.90;99.90
20158;DHT22;10239;56.820;24.416;2023-11-19T05:26:33;0.80;99.90
20158;DHT22;10239;56.820;24.416;2023-11-19T05:29:00;0.70;99.90
20158;DHT22;10239;56.820;24.416;2023-11-19T05:31:28;0.40;99.90
20158;DHT22;10239;56.820;24.416;2023-11-19T05:33:56;0.40;99.90
20158;DHT22;10239;56.820;24.416;2023-11-19T05:36:23;0.50;99.90
20158;DHT22;10239;56.820;24.416;2023-11-19T05:38:51;0.60;99.90
20158;DHT22;10239;56.820;24.416;2023-11-19T05:41:18;0.70;99.90
20158;DHT22;10239;56.820;24.416;2023-11-19T05:43:45;0.70;99.90
20158;DHT22;10239;56.820;24.416;2023-11-19T05:46:13;0.50;99.90
20158;DHT22;10239;56.820;24.416;2023-11-19T05:48:43;0.50;99.90
20158;DHT22;10239;56.820;24.416;2023-11-19T05:51:12;0.40;99.90
20158;DHT22;10239;56.820;24.416;2023-11-19T05:53:42;0.50;99.90
20158;DHT22;10239;56.820;24.416;2023-11-19T05:56:09;0.30;99.90
20158;DHT22;10239;56.820;24.416;2023-11-19T05:58:37;0.30;99.90
20158;DHT22;10239;56.820;24.416;2023-11-19T06:01:06;0.40;99.90
20158;DHT22;10239;56.820;24.416;2023-11-19T06:03:35;0.40;99.90
20158;DHT22;10239;56.820;24.416;2023-11-19T06:06:08;0.40;99.90
20158;DHT22;10239;56.820;24.416;2023-11-19T06:08:37;0.30;99.90
20158;DHT22;10239;56.820;24.416;2023-11-19T06:11:04;0.30;99.90
20158;DHT22;10239;56.820;24.416;2023-11-19T06:13:31;0.10;99.90
20158;DHT22;10239;56.820;24.416;2023-11-19T06:15:59;0.20;99.90
20158;DHT22;10239;56.820;24.416;2023-11-19T06:18:27;0.20;99.90
20158;DHT22;10239;56.820;24.416;2023-11-19T06:20:54;0.40;99.90
20158;DHT22;10239;56.820;24.416;2023-11-19T06:23:22;0.60;99.90
20158;DHT22;10239;56.820;24.416;2023-11-19T06:25:49;0.70;99.90
20158;DHT22;10239;56.820;24.416;2023-11-19T06:28:17;0.70;99.90
20158;DHT22;10239;56.820;24.416;2023-11-19T06:30:44;0.70;99.90
20158;DHT22;10239;56.820;24.416;2023-11-19T06:33:15;0.50;99.90
20158;DHT22;10239;56.820;24.416;2023-11-19T06:35:43;0.50;99.90
20158;DHT22;10239;56.820;24.416;2023-11-19T06:38:11;0.40;99.90
20158;DHT22;10239;56.820;24.416;2023-11-19T06:40:38;0.60;99.90
20158;DHT22;10239;56.820;24.416;2023-11-19T06:43:08;0.70;99.90
20158;DHT22;10239;56.820;24.416;2023-11-19T06:45:36;0.90;99.90
20158;DHT22;10239;56.820;24.416;2023-11-19T06:48:04;1.00;99.90
20158;DHT22;10239;56.820;24.416;2023-11-19T06:50:32;0.80;99.90
20158;DHT22;10239;56.820;24.416;2023-11-19T06:53:00;0.60;99.90
20158;DHT22;10239;56.820;24.416;2023-11-19T06:55:27;0.60;99.90
20158;DHT22;10239;56.820;24.416;2023-11-19T06:57:55;0.60;99.90
20158;DHT22;10239;56.820;24.416;2023-11-19T07:00:22;0.70;99.90
20158;DHT22;10239;56.820;24.416;2023-11-19T07:02:50;0.70;99.90
20158;DHT22;10239;56.820;24.416;2023-11-19T07:05:18;0.50;99.90
20158;DHT22;10239;56.820;24.416;2023-11-19T07:07:46;0.40;99.90
20158;DHT22;10239;56.820;24.416;2023-11-19T07:10:16;0.40;99.90
20158;DHT22;10239;56.820;24.416;2023-11-19T07:12:43;0.40;99.90
20158;DHT22;10239;56.820;24.416;2023-11-19T07:15:11;0.50;99.90
20158;DHT22;10239;56.820;24.416;2023-11-19T07:17:39;0.50;99.90
20158;DHT22;10239;56.820;24.416;2023-11-19T07:20:11;0.40;99.90
20158;DHT22;10239;56.820;24.416;2023-11-19T07:22:43;0.40;99.90
20158;DHT22;10239;56.820;24.416;2023-11-19T07:25:14;0.30;99.90
20158;DHT22;10239;56.820;24.416;2023-11-19T07:27:42;0.40;99.90
20158;DHT22;10239;56.820;24.416;2023-11-19T07:30:10;0.50;99.90
20158;DHT22;10239;56.820;24.416;2023-11-19T07:32:38;0.50;99.90
20158;DHT22;10239;56.820;24.416;2023-11-19T07:35:06;0.30;99.90
20158;DHT22;10239;56.820;24.416;2023-11-19T07:37:34;0.30;99.90
20158;DHT22;10239;56.820;24.416;2023-11-19T07:40:01;0.60;99.90
20158;DHT22;10239;56.820;24.416;2023-11-19T07:42:29;0.50;99.90
20158;DHT22;10239;56.820;24.416;2023-11-19T07:44:56;0.50;99.90
20158;DHT22;10239;56.820;24.416;2023-11-19T07:47:24;0.60;99.90
20158;DHT22;10239;56.820;24.416;2023-11-19T07:49:51;0.60;99.90
20158;DHT22;10239;56.820;24.416;2023-11-19T07:52:19;0.60;99.90
20158;DHT22;10239;56.820;24.416;2023-11-19T07:54:48;0.50;99.90
20158;DHT22;10239;56.820;24.416;2023-11-19T07:57:16;0.70;99.90
20158;DHT22;10239;56.820;24.416;2023-11-19T07:59:43;0.50;99.90
20158;DHT22;10239;56.820;24.416;2023-11-19T08:02:10;0.50;99.90
20158;DHT22;10239;56.820;24.416;2023-11-19T08:04:38;0.80;99.90
20158;DHT22;10239;56.820;24.416;2023-11-19T08:07:07;0.70;99.90
20158;DHT22;10239;56.820;24.416;2023-11-19T08:09:34;0.70;99.90
20158;DHT22;10239;56.820;24.416;2023-11-19T08:12:01;0.80;99.90
20158;DHT22;10239;56.820;24.416;2023-11-19T08:14:29;1.00;99.90
20158;DHT22;10239;56.820;24.416;2023-11-19T08:16:56;1.10;99.90
20158;DHT22;10239;56.820;24.416;2023-11-19T08:19:24;1.00;99.90
20158;DHT22;10239;56.820;24.416;2023-11-19T08:21:52;1.00;99.90
20158;DHT22;10239;56.820;24.416;2023-11-19T08:24:20;1.10;99.90
20158;DHT22;10239;56.820;24.416;2023-11-19T08:26:47;1.20;99.90
20158;DHT22;10239;56.820;24.416;2023-11-19T08:29:29;1.10;99.90
20158;DHT22;10239;56.820;24.416;2023-11-19T08:31:56;1.10;99.90
20158;DHT22;10239;56.820;24.416;2023-11-19T08:34:24;1.00;99.90
20158;DHT22;10239;56.820;24.416;2023-11-19T08:36:52;0.90;99.90
20158;DHT22;10239;56.820;24.416;2023-11-19T08:39:23;1.00;99.90
20158;DHT22;10239;56.820;24.416;2023-11-19T08:41:51;1.10;99.90
20158;DHT22;10239;56.820;24.416;2023-11-19T08:44:18;1.30;99.90
20158;DHT22;10239;56.820;24.416;2023-11-19T08:46:50;1.30;99.90
20158;DHT22;10239;56.820;24.416;2023-11-19T08:49:18;1.60;99.90
20158;DHT22;10239;56.820;24.416;2023-11-19T08:51:46;1.30;99.90
20158;DHT22;10239;56.820;24.416;2023-11-19T08:54:13;1.20;99.90
20158;DHT22;10239;56.820;24.416;2023-11-19T08:56:41;1.10;99.90
20158;DHT22;10239;56.820;24.416;2023-11-19T08:59:09;1.40;99.90
20158;DHT22;10239;56.820;24.416;2023-11-19T09:01:36;1.20;99.90
20158;DHT22;10239;56.820;24.416;2023-11-19T09:04:04;1.50;99.90
20158;DHT22;10239;56.820;24.416;2023-11-19T09:06:32;1.40;99.90
20158;DHT22;10239;56.820;24.416;2023-11-19T09:08:59;1.50;99.90
20158;DHT22;10239;56.820;24.416;2023-11-19T09:11:29;1.60;99.90
20158;DHT22;10239;56.820;24.416;2023-11-19T09:13:57;1.50;99.90
20158;DHT22;10239;56.820;24.416;2023-11-19T09:16:25;1.50;99.90
20158;DHT22;10239;56.820;24.416;2023-11-19T09:18:52;1.40;99.90
20158;DHT22;10239;56.820;24.416;2023-11-19T09:21:20;1.80;99.90
20158;DHT22;10239;56.820;24.416;2023-11-19T09:23:47;1.70;99.90
20158;DHT22;10239;56.820;24.416;2023-11-19T09:26:16;1.70;99.90
20158;DHT22;10239;56.820;24.416;2023-11-19T09:28:43;1.80;99.90
20158;DHT22;10239;56.820;24.416;2023-11-19T09:31:18;1.90;99.90
20158;DHT22;10239;56.820;24.416;2023-11-19T09:33:45;1.70;99.90
20158;DHT22;10239;56.820;24.416;2023-11-19T09:36:13;1.60;99.90
20158;DHT22;10239;56.820;24.416;2023-11-19T09:38:41;1.60;99.90
20158;DHT22;10239;56.820;24.416;2023-11-19T09:41:10;1.80;99.90
20158;DHT22;10239;56.820;24.416;2023-11-19T09:43:39;2.00;99.90
20158;DHT22;10239;56.820;24.416;2023-11-19T09:46:09;1.70;99.90
20158;DHT22;10239;56.820;24.416;2023-11-19T09:48:41;1.90;99.90
20158;DHT22;10239;56.820;24.416;2023-11-19T09:51:11;1.90;99.90
20158;DHT22;10239;56.820;24.416;2023-11-19T09:53:40;2.30;99.90
20158;DHT22;10239;56.820;24.416;2023-11-19T09:56:07;2.30;99.90
20158;DHT22;10239;56.820;24.416;2023-11-19T09:58:37;2.30;99.90
20158;DHT22;10239;56.820;24.416;2023-11-19T10:01:04;2.20;99.90
20158;DHT22;10239;56.820;24.416;2023-11-19T10:03:41;2.40;99.90
20158;DHT22;10239;56.820;24.416;2023-11-19T10:06:11;2.60;99.90
20158;DHT22;10239;56.820;24.416;2023-11-19T10:08:39;2.50;99.90
20158;DHT22;10239;56.820;24.416;2023-11-19T10:11:08;2.50;99.90
20158;DHT22;10239;56.820;24.416;2023-11-19T10:13:37;2.60;99.90
20158;DHT22;10239;56.820;24.416;2023-11-19T10:16:15;2.40;99.90
20158;DHT22;10239;56.820;24.416;2023-11-19T10:18:49;2.60;99.90
20158;DHT22;10239;56.820;24.416;2023-11-19T10:21:19;2.50;99.90
20158;DHT22;10239;56.820;24.416;2023-11-19T10:26:20;2.30;99.90
20158;DHT22;10239;56.820;24.416;2023-11-19T10:28:48;2.40;99.90
20158;DHT22;10239;56.820;24.416;2023-11-19T10:31:20;2.50;99.90
20158;DHT22;10239;56.820;24.416;2023-11-19T10:33:53;2.20;99.90
20158;DHT22;10239;56.820;24.416;2023-11-19T10:36:21;2.20;99.90
20158;DHT22;10239;56.820;24.416;2023-11-19T10:38:56;2.40;99.90
20158;DHT22;10239;56.820;24.416;2023-11-19T10:41:36;2.60;99.90
20158;DHT22;10239;56.820;24.416;2023-11-19T10:44:03;2.80;99.90
20158;DHT22;10239;56.820;24.416;2023-11-19T10:46:44;2.60;99.90
20158;DHT22;10239;56.820;24.416;2023-11-19T10:49:11;2.90;99.90
20158;DHT22;10239;56.820;24.416;2023-11-19T10:51:45;2.90;99.90
20158;DHT22;10239;56.820;24.416;2023-11-19T10:54:15;3.10;99.90
20158;DHT22;10239;56.820;24.416;2023-11-19T10:56:44;3.20;99.90
20158;DHT22;10239;56.820;24.416;2023-11-19T10:59:14;2.70;99.90
20158;DHT22;10239;56.820;24.416;2023-11-19T11:01:45;2.80;99.90
20158;DHT22;10239;56.820;24.416;2023-11-19T11:04:22;2.60;99.90
20158;DHT22;10239;56.820;24.416;2023-11-19T11:06:52;2.60;99.90
20158;DHT22;10239;56.820;24.416;2023-11-19T11:09:23;2.60;99.90
20158;DHT22;10239;56.820;24.416;2023-11-19T11:11:51;2.70;99.90
20158;DHT22;10239;56.820;24.416;2023-11-19T11:14:20;3.00;99.90
20158;DHT22;10239;56.820;24.416;2023-11-19T11:16:49;3.10;99.90
20158;DHT22;10239;56.820;24.416;2023-11-19T11:19:19;2.90;99.90
20158;DHT22;10239;56.820;24.416;2023-11-19T11:21:50;2.80;99.90
20158;DHT22;10239;56.820;24.416;2023-11-19T11:24:48;2.80;99.90
20158;DHT22;10239;56.820;24.416;2023-11-19T11:28:02;2.80;99.90
20158;DHT22;10239;56.820;24.416;2023-11-19T11:36:31;2.60;99.90
20158;DHT22;10239;56.820;24.416;2023-11-19T11:39:04;2.30;99.90
20158;DHT22;10239;56.820;24.416;2023-11-19T11:41:35;2.40;99.90
20158;DHT22;10239;56.820;24.416;2023-11-19T11:44:02;2.40;99.90
20158;DHT22;10239;56.820;24.416;2023-11-19T11:49:08;2.40;99.90
20158;DHT22;10239;56.820;24.416;2023-11-19T11:54:26;2.40;99.90
20158;DHT22;10239;56.820;24.416;2023-11-19T11:57:12;2.60;99.90
20158;DHT22;10239;56.820;24.416;2023-11-19T12:02:14;2.50;99.90
20158;DHT22;10239;56.820;24.416;2023-11-19T12:04:46;2.80;99.90
20158;DHT22;10239;56.820;24.416;2023-11-19T12:07:33;2.50;99.90
20158;DHT22;10239;56.820;24.416;2023-11-19T12:10:08;2.40;99.90
20158;DHT22;10239;56.820;24.416;2023-11-19T12:12:36;2.50;99.90
20158;DHT22;10239;56.820;24.416;2023-11-19T12:20:02;2.70;99.90
20158;DHT22;10239;56.820;24.416;2023-11-19T12:22:32;2.50;99.90
20158;DHT22;10239;56.820;24.416;2023-11-19T12:25:00;2.80;99.90
20158;DHT22;10239;56.820;24.416;2023-11-19T12:27:29;2.70;99.90
20158;DHT22;10239;56.820;24.416;2023-11-19T12:29:56;2.60;99.90
20158;DHT22;10239;56.820;24.416;2023-11-19T12:32:24;2.50;99.90
20158;DHT22;10239;56.820;24.416;2023-11-19T12:34:51;2.30;99.90
20158;DHT22;10239;56.820;24.416;2023-11-19T12:37:19;2.40;99.90
20158;DHT22;10239;56.820;24.416;2023-11-19T12:39:49;2.30;99.90
20158;DHT22;10239;56.820;24.416;2023-11-19T12:42:17;2.50;99.90
20158;DHT22;10239;56.820;24.416;2023-11-19T12:44:56;2.40;99.90
20158;DHT22;10239;56.820;24.416;2023-11-19T12:47:24;2.60;99.90
20158;DHT22;10239;56.820;24.416;2023-11-19T12:49:57;2.90;99.90
20158;DHT22;10239;56.820;24.416;2023-11-19T12:52:25;2.70;99.90
20158;DHT22;10239;56.820;24.416;2023-11-19T12:54:52;2.70;99.90
20158;DHT22;10239;56.820;24.416;2023-11-19T12:57:20;2.50;99.90
20158;DHT22;10239;56.820;24.416;2023-11-19T12:59:59;2.40;99.90
20158;DHT22;10239;56.820;24.416;2023-11-19T13:02:53;2.30;99.90
20158;DHT22;10239;56.820;24.416;2023-11-19T13:05:25;2.30;99.90
20158;DHT22;10239;56.820;24.416;2023-11-19T13:08:09;2.20;99.90
20158;DHT22;10239;56.820;24.416;2023-11-19T13:10:50;2.00;99.90
20158;DHT22;10239;56.820;24.416;2023-11-19T13:13:18;2.00;99.90
20158;DHT22;10239;56.820;24.416;2023-11-19T13:15:46;1.90;99.90
20158;DHT22;10239;56.820;24.416;2023-11-19T13:18:15;1.60;99.90
20158;DHT22;10239;56.820;24.416;2023-11-19T13:20:43;1.50;99.90
20158;DHT22;10239;56.820;24.416;2023-11-19T13:23:10;1.70;99.90
20158;DHT22;10239;56.820;24.416;2023-11-19T13:25:38;1.70;99.90
20158;DHT22;10239;56.820;24.416;2023-11-19T13:28:05;1.50;99.90
20158;DHT22;10239;56.820;24.416;2023-11-19T13:30:33;1.60;99.90
20158;DHT22;10239;56.820;24.416;2023-11-19T13:33:00;1.70;99.90
20158;DHT22;10239;56.820;24.416;2023-11-19T13:35:29;1.50;99.90
20158;DHT22;10239;56.820;24.416;2023-11-19T13:37:56;1.40;99.90
20158;DHT22;10239;56.820;24.416;2023-11-19T13:40:24;1.60;99.90
20158;DHT22;10239;56.820;24.416;2023-11-19T13:42:52;1.60;99.90
20158;DHT22;10239;56.820;24.416;2023-11-19T13:45:20;1.60;99.90
20158;DHT22;10239;56.820;24.416;2023-11-19T13:47:48;1.70;99.90
20158;DHT22;10239;56.820;24.416;2023-11-19T13:50:16;1.60;99.90
20158;DHT22;10239;56.820;24.416;2023-11-19T13:52:44;1.50;99.90
20158;DHT22;10239;56.820;24.416;2023-11-19T13:55:16;1.40;99.90
20158;DHT22;10239;56.820;24.416;2023-11-19T13:57:43;1.50;99.90
20158;DHT22;10239;56.820;24.416;2023-11-19T14:00:11;1.30;99.90
20158;DHT22;10239;56.820;24.416;2023-11-19T14:02:47;1.40;99.90
20158;DHT22;10239;56.820;24.416;2023-11-19T14:05:15;1.50;99.90
20158;DHT22;10239;56.820;24.416;2023-11-19T14:08:04;1.40;99.90
20158;DHT22;10239;56.820;24.416;2023-11-19T14:10:51;1.40;99.90
20158;DHT22;10239;56.820;24.416;2023-11-19T14:13:19;1.30;99.90
20158;DHT22;10239;56.820;24.416;2023-11-19T14:15:46;1.20;99.90
20158;DHT22;10239;56.820;24.416;2023-11-19T14:18:17;1.10;99.90
20158;DHT22;10239;56.820;24.416;2023-11-19T14:20:45;1.10;99.90
20158;DHT22;10239;56.820;24.416;2023-11-19T14:23:13;1.20;99.90
20158;DHT22;10239;56.820;24.416;2023-11-19T14:25:40;1.00;99.90
20158;DHT22;10239;56.820;24.416;2023-11-19T14:28:07;1.00;99.90
20158;DHT22;10239;56.820;24.416;2023-11-19T14:30:35;1.00;99.90
20158;DHT22;10239;56.820;24.416;2023-11-19T14:33:02;0.80;99.90
20158;DHT22;10239;56.820;24.416;2023-11-19T14:35:31;0.60;99.90
20158;DHT22;10239;56.820;24.416;2023-11-19T14:38:00;0.50;99.90
20158;DHT22;10239;56.820;24.416;2023-11-19T14:40:27;0.50;99.90
20158;DHT22;10239;56.820;24.416;2023-11-19T14:42:57;0.50;99.90
20158;DHT22;10239;56.820;24.416;2023-11-19T14:45:25;0.50;99.90
20158;DHT22;10239;56.820;24.416;2023-11-19T14:47:54;0.30;99.90
20158;DHT22;10239;56.820;24.416;2023-11-19T14:50:22;0.20;99.90
20158;DHT22;10239;56.820;24.416;2023-11-19T14:52:49;0.10;99.90
20158;DHT22;10239;56.820;24.416;2023-11-19T14:55:17;0.10;99.90
20158;DHT22;10239;56.820;24.416;2023-11-19T14:57:44;0.00;99.90
20158;DHT22;10239;56.820;24.416;2023-11-19T15:00:28;0.10;99.90
20158;DHT22;10239;56.820;24.416;2023-11-19T15:02:56;0.20;99.90
20158;DHT22;10239;56.820;24.416;2023-11-19T15:05:24;0.20;99.90
20158;DHT22;10239;56.820;24.416;2023-11-19T15:07:51;0.30;99.90
20158;DHT22;10239;56.820;24.416;2023-11-19T15:10:20;0.30;99.90
20158;DHT22;10239;56.820;24.416;2023-11-19T15:12:48;0.20;99.90
20158;DHT22;10239;56.820;24.416;2023-11-19T15:15:16;0.30;99.90
20158;DHT22;10239;56.820;24.416;2023-11-19T15:18:02;0.50;99.90
20158;DHT22;10239;56.820;24.416;2023-11-19T15:20:30;0.50;99.90
20158;DHT22;10239;56.820;24.416;2023-11-19T15:22:58;0.50;99.90
20158;DHT22;10239;56.820;24.416;2023-11-19T15:25:26;0.50;99.90
20158;DHT22;10239;56.820;24.416;2023-11-19T15:27:54;0.60;99.90
20158;DHT22;10239;56.820;24.416;2023-11-19T15:30:22;0.80;99.90
20158;DHT22;10239;56.820;24.416;2023-11-19T15:32:50;0.80;99.90
20158;DHT22;10239;56.820;24.416;2023-11-19T15:35:18;0.90;99.90
20158;DHT22;10239;56.820;24.416;2023-11-19T15:37:46;0.80;99.90
20158;DHT22;10239;56.820;24.416;2023-11-19T15:40:14;0.90;99.90
20158;DHT22;10239;56.820;24.416;2023-11-19T15:42:42;1.10;99.90
20158;DHT22;10239;56.820;24.416;2023-11-19T15:45:13;1.00;99.90
20158;DHT22;10239;56.820;24.416;2023-11-19T15:47:43;0.90;99.90
20158;DHT22;10239;56.820;24.416;2023-11-19T15:50:11;1.00;99.90
20158;DHT22;10239;56.820;24.416;2023-11-19T15:52:38;1.10;99.90
20158;DHT22;10239;56.820;24.416;2023-11-19T15:55:07;1.20;99.90
20158;DHT22;10239;56.820;24.416;2023-11-19T15:57:34;1.30;99.90
20158;DHT22;10239;56.820;24.416;2023-11-19T16:00:03;1.20;99.90
20158;DHT22;10239;56.820;24.416;2023-11-19T16:02:31;1.10;99.90
20158;DHT22;10239;56.820;24.416;2023-11-19T16:04:59;1.10;99.90